Time;durP1;ratioP1;P1;durP2;ratioP2;P2;SDS_P1;SDS_P2;PMS_P1;PMS_P2;Temp;Humidity;BMP_temperature;BMP_pressure;BME280_temperature;BME280_humidity;BME280_pressure;Samples;Min_cycle;Max_cycle;Signal;HPM_P1;HPM_P2
2022/02/24 00:01:13;;;;;;;;;;;7.80;99.90;;;;;;5072832;28;19920;-54
2022/02/24 00:03:40;;;;;;;;;;;7.80;99.90;;;;;;5072107;28;19924;-57
2022/02/24 00:06:06;;;;;;;;;;;7.70;99.90;;;;;;5072274;28;19920;-55
2022/02/24 00:08:33;;;;;;;;;;;7.70;99.90;;;;;;5072376;28;19924;-52
2022/02/24 00:11:00;;;;;;;;;;;7.70;99.90;;;;;;5072321;28;19920;-54
2022/02/24 00:13:26;;;;;;;;;;;7.70;99.90;;;;;;5072577;28;19920;-51
2022/02/24 00:15:54;;;;;;;;;;;7.70;99.90;;;;;;5072110;28;19927;-55
2022/02/24 00:18:21;;;;;;;;;;;7.70;99.90;;;;;;5072394;28;20011;-54
2022/02/24 00:20:47;;;;;;;;;;;7.60;99.90;;;;;;5072030;28;19924;-50
2022/02/24 00:23:14;;;;;;;;;;;7.60;99.90;;;;;;5072175;28;19928;-53
2022/02/24 00:25:40;;;;;;;;;;;7.60;99.90;;;;;;5072334;28;19920;-53
2022/02/24 00:28:07;;;;;;;;;;;7.60;99.90;;;;;;5072310;28;19920;-53
2022/02/24 00:30:33;;;;;;;;;;;7.50;99.90;;;;;;5072662;28;19921;-54
2022/02/24 00:33:01;;;;;;;;;;;7.50;99.90;;;;;;5072407;28;20349;-50
2022/02/24 00:35:28;;;;;;;;;;;7.60;99.90;;;;;;5071728;28;19950;-53
2022/02/24 00:37:54;;;;;;;;;;;7.50;99.90;;;;;;5071665;28;19978;-52
2022/02/24 00:40:21;;;;;;;;;;;7.60;99.90;;;;;;5071533;28;19974;-54
2022/02/24 00:42:47;;;;;;;;;;;7.60;99.90;;;;;;5071924;28;19927;-50
2022/02/24 00:45:14;;;;;;;;;;;7.60;99.90;;;;;;5071650;28;19924;-55
2022/02/24 00:47:40;;;;;;;;;;;7.60;99.90;;;;;;5071659;28;19920;-55
2022/02/24 00:50:09;;;;;;;;;;;7.60;99.90;;;;;;5071486;28;19921;-52
2022/02/24 00:52:36;;;;;;;;;;;7.60;99.90;;;;;;5071650;28;19925;-56
2022/02/24 00:55:03;;;;;;;;;;;7.70;99.90;;;;;;5071782;28;19925;-56
2022/02/24 00:57:30;;;;;;;;;;;7.60;99.90;;;;;;5071864;28;19921;-51
2022/02/24 00:59:56;;;;;;;;;;;7.60;99.90;;;;;;5071762;28;19921;-54
2022/02/24 01:02:23;;;;;;;;;;;7.60;99.90;;;;;;5071727;28;20287;-53
2022/02/24 01:04:49;;;;;;;;;;;7.70;99.90;;;;;;5071654;28;19978;-56
2022/02/24 01:07:17;;;;;;;;;;;7.70;99.90;;;;;;5071632;28;19924;-52
2022/02/24 01:09:44;;;;;;;;;;;7.70;99.90;;;;;;5071337;28;20358;-51
2022/02/24 01:12:10;;;;;;;;;;;7.60;99.90;;;;;;5070720;28;19950;-50
2022/02/24 01:14:37;;;;;;;;;;;7.70;99.90;;;;;;5071587;28;19966;-50
2022/02/24 01:17:04;;;;;;;;;;;7.70;99.90;;;;;;5071040;28;19920;-53
2022/02/24 01:19:30;;;;;;;;;;;7.70;99.90;;;;;;5071560;28;19920;-54
2022/02/24 01:21:57;;;;;;;;;;;7.70;99.90;;;;;;5071802;28;20061;-55
2022/02/24 01:24:25;;;;;;;;;;;7.70;99.90;;;;;;5071720;28;19920;-51
2022/02/24 01:26:51;;;;;;;;;;;7.70;99.90;;;;;;5071289;28;19924;-50
2022/02/24 01:29:18;;;;;;;;;;;7.70;99.90;;;;;;5071512;28;19924;-56
2022/02/24 01:31:44;;;;;;;;;;;7.70;99.90;;;;;;5071634;28;19921;-55
2022/02/24 01:34:11;;;;;;;;;;;7.70;99.90;;;;;;5070967;28;19921;-51
2022/02/24 01:36:37;;;;;;;;;;;7.70;99.90;;;;;;5071102;28;19920;-51
2022/02/24 01:39:04;;;;;;;;;;;7.70;99.90;;;;;;5071441;28;20387;-53
2022/02/24 01:41:32;;;;;;;;;;;7.70;99.90;;;;;;5071528;28;20321;-51
2022/02/24 01:44:07;;;;;;;;;;;7.70;99.90;;;;;;5071045;28;19920;-53
2022/02/24 01:46:33;;;;;;;;;;;7.70;99.90;;;;;;5071151;28;19932;-51
2022/02/24 01:49:00;;;;;;;;;;;7.70;99.90;;;;;;5071435;28;19978;-53
2022/02/24 01:51:27;;;;;;;;;;;7.70;99.90;;;;;;5072560;28;19924;-56
2022/02/24 01:53:53;;;;;;;;;;;7.70;99.90;;;;;;5075329;28;19971;-55
2022/02/24 01:56:20;;;;;;;;;;;7.60;99.90;;;;;;5074851;28;19924;-54
2022/02/24 01:58:48;;;;;;;;;;;7.60;99.90;;;;;;5074954;28;19928;-56
2022/02/24 02:01:15;;;;;;;;;;;7.60;99.90;;;;;;5074571;28;20374;-53
2022/02/24 02:03:42;;;;;;;;;;;7.60;99.90;;;;;;5075207;28;19921;-55
2022/02/24 02:06:09;;;;;;;;;;;7.60;99.90;;;;;;5074959;28;19924;-53
2022/02/24 02:08:36;;;;;;;;;;;7.60;99.90;;;;;;5074671;28;19982;-53
2022/02/24 02:11:02;;;;;;;;;;;7.60;99.90;;;;;;5074679;28;19974;-53
2022/02/24 02:13:32;;;;;;;;;;;7.60;99.90;;;;;;5074641;28;19920;-55
2022/02/24 02:16:00;;;;;;;;;;;7.60;99.90;;;;;;5074806;28;20108;-52
2022/02/24 02:18:26;;;;;;;;;;;7.60;99.90;;;;;;5074638;28;19924;-52
2022/02/24 02:20:54;;;;;;;;;;;7.60;99.90;;;;;;5074531;28;20391;-51
2022/02/24 02:23:20;;;;;;;;;;;7.60;99.90;;;;;;5074389;28;19920;-55
2022/02/24 02:25:47;;;;;;;;;;;7.60;99.90;;;;;;5074428;28;19921;-55
2022/02/24 02:28:14;;;;;;;;;;;7.60;99.90;;;;;;5074511;28;19924;-56
2022/02/24 02:30:41;;;;;;;;;;;7.60;99.90;;;;;;5074354;28;19924;-51
2022/02/24 02:33:08;;;;;;;;;;;7.60;99.90;;;;;;5074768;28;19973;-56
2022/02/24 02:35:35;;;;;;;;;;;7.60;99.90;;;;;;5074780;28;20316;-53
2022/02/24 02:38:05;;;;;;;;;;;7.70;99.90;;;;;;5074943;28;19927;-51
2022/02/24 02:40:34;;;;;;;;;;;7.70;99.90;;;;;;5074074;28;19977;-55
2022/02/24 02:43:00;;;;;;;;;;;7.70;99.90;;;;;;5074302;28;19920;-50
2022/02/24 02:45:27;;;;;;;;;;;7.70;99.90;;;;;;5074491;28;19921;-56
2022/02/24 02:47:53;;;;;;;;;;;7.70;99.90;;;;;;5074355;28;19920;-55
2022/02/24 02:50:20;;;;;;;;;;;7.70;99.90;;;;;;5073921;28;19924;-51
2022/02/24 02:52:46;;;;;;;;;;;7.70;99.90;;;;;;5074106;28;19920;-55
2022/02/24 02:55:15;;;;;;;;;;;7.70;99.90;;;;;;5073916;28;19982;-51
2022/02/24 02:57:41;;;;;;;;;;;7.60;1.00;;;;;;5073374;28;19928;-51
2022/02/24 03:00:09;;;;;;;;;;;7.60;99.90;;;;;;5074184;28;19924;-53
2022/02/24 03:02:36;;;;;;;;;;;7.70;99.90;;;;;;5073353;28;19921;-53
2022/02/24 03:05:02;;;;;;;;;;;7.70;99.90;;;;;;5073757;28;19920;-55
2022/02/24 03:07:29;;;;;;;;;;;7.60;1.00;;;;;;5073400;28;19950;-52
2022/02/24 03:09:55;;;;;;;;;;;7.70;1.00;;;;;;5073797;28;19924;-53
2022/02/24 03:12:23;;;;;;;;;;;7.60;1.00;;;;;;5074129;28;20023;-56
2022/02/24 03:14:50;;;;;;;;;;;7.60;1.00;;;;;;5073795;28;20336;-53
2022/02/24 03:17:16;;;;;;;;;;;7.60;1.00;;;;;;5073964;28;19920;-57
2022/02/24 03:19:43;;;;;;;;;;;7.60;1.00;;;;;;5074061;28;19921;-56
2022/02/24 03:22:10;;;;;;;;;;;7.60;1.00;;;;;;5074049;28;19973;-57
2022/02/24 03:24:37;;;;;;;;;;;7.60;1.00;;;;;;5073584;28;19921;-58
2022/02/24 03:27:04;;;;;;;;;;;7.50;1.00;;;;;;5073532;28;19970;-54
2022/02/24 03:29:32;;;;;;;;;;;7.50;1.00;;;;;;5073364;28;19986;-51
2022/02/24 03:32:00;;;;;;;;;;;7.60;1.00;;;;;;5073296;28;19924;-54
2022/02/24 03:34:26;;;;;;;;;;;7.60;1.00;;;;;;5073465;28;19924;-53
2022/02/24 03:36:53;;;;;;;;;;;7.60;1.00;;;;;;5073248;28;20341;-55
2022/02/24 03:39:19;;;;;;;;;;;7.50;1.00;;;;;;5073604;28;19920;-54
2022/02/24 03:41:46;;;;;;;;;;;7.50;1.00;;;;;;5073386;28;19974;-54
2022/02/24 03:44:12;;;;;;;;;;;7.50;1.00;;;;;;5073624;28;19926;-52
2022/02/24 03:46:40;;;;;;;;;;;7.50;1.00;;;;;;5073211;28;20317;-57
2022/02/24 03:49:07;;;;;;;;;;;7.50;1.00;;;;;;5073578;28;19924;-56
2022/02/24 03:51:33;;;;;;;;;;;7.50;1.00;;;;;;5073567;28;19971;-53
2022/02/24 03:54:00;;;;;;;;;;;7.50;1.00;;;;;;5074061;28;19921;-54
2022/02/24 03:56:27;;;;;;;;;;;7.50;1.00;;;;;;5075914;28;19927;-51
2022/02/24 03:58:53;;;;;;;;;;;7.50;1.00;;;;;;5074590;28;20011;-56
2022/02/24 04:01:20;;;;;;;;;;;7.50;1.00;;;;;;5073629;28;20330;-53
2022/02/24 04:03:47;;;;;;;;;;;7.40;1.00;;;;;;5073185;28;19973;-56
2022/02/24 04:06:14;;;;;;;;;;;7.40;1.00;;;;;;5073594;28;20381;-55
2022/02/24 04:08:41;;;;;;;;;;;7.40;1.00;;;;;;5074026;28;20379;-54
2022/02/24 04:11:07;;;;;;;;;;;7.40;1.00;;;;;;5074067;28;19921;-56
2022/02/24 04:13:34;;;;;;;;;;;7.40;1.00;;;;;;5072782;28;19974;-51
2022/02/24 04:16:00;;;;;;;;;;;7.40;1.00;;;;;;5072400;28;19920;-50
2022/02/24 04:18:27;;;;;;;;;;;7.40;1.00;;;;;;5072858;28;19920;-51
2022/02/24 04:20:55;;;;;;;;;;;7.40;1.00;;;;;;5072244;28;19928;-50
2022/02/24 04:23:21;;;;;;;;;;;7.40;1.00;;;;;;5072874;28;19920;-56
2022/02/24 04:25:48;;;;;;;;;;;7.40;1.00;;;;;;5072753;28;19946;-52
2022/02/24 04:28:15;;;;;;;;;;;7.50;1.00;;;;;;5072353;28;19954;-55
2022/02/24 04:30:41;;;;;;;;;;;7.40;1.00;;;;;;5072316;28;19973;-54
2022/02/24 04:33:08;;;;;;;;;;;7.40;1.00;;;;;;5072100;28;20333;-54
2022/02/24 04:35:34;;;;;;;;;;;7.50;1.00;;;;;;5072173;28;19924;-56
2022/02/24 04:38:02;;;;;;;;;;;7.40;1.00;;;;;;5072726;28;20267;-56
2022/02/24 04:40:29;;;;;;;;;;;7.40;1.00;;;;;;5072522;28;20310;-51
2022/02/24 04:42:55;;;;;;;;;;;7.40;1.00;;;;;;5072545;28;19924;-51
2022/02/24 04:45:22;;;;;;;;;;;7.40;1.00;;;;;;5072174;28;19946;-51
2022/02/24 04:47:49;;;;;;;;;;;7.40;1.00;;;;;;5072474;28;19962;-53
2022/02/24 04:50:15;;;;;;;;;;;7.40;1.00;;;;;;5072671;28;19927;-56
2022/02/24 04:52:42;;;;;;;;;;;7.40;1.00;;;;;;5072663;28;19925;-52
2022/02/24 04:55:11;;;;;;;;;;;7.40;1.00;;;;;;5071667;28;19926;-54
2022/02/24 04:57:37;;;;;;;;;;;7.40;1.00;;;;;;5071860;28;19920;-55
2022/02/24 05:00:05;;;;;;;;;;;7.40;1.00;;;;;;5071592;28;20371;-54
2022/02/24 05:02:31;;;;;;;;;;;7.50;1.00;;;;;;5071810;28;19935;-52
2022/02/24 05:04:58;;;;;;;;;;;7.40;1.00;;;;;;5071976;28;19920;-51
2022/02/24 05:07:24;;;;;;;;;;;7.40;1.00;;;;;;5071638;28;19928;-51
2022/02/24 05:09:51;;;;;;;;;;;7.40;1.00;;;;;;5072034;28;19920;-55
2022/02/24 05:12:19;;;;;;;;;;;7.40;1.00;;;;;;5071762;28;20280;-53
2022/02/24 05:14:45;;;;;;;;;;;7.40;1.00;;;;;;5071721;28;19924;-55
2022/02/24 05:17:12;;;;;;;;;;;7.40;1.00;;;;;;5071592;28;19924;-52
2022/02/24 05:19:38;;;;;;;;;;;7.40;1.00;;;;;;5071816;28;19920;-51
2022/02/24 05:22:05;;;;;;;;;;;7.40;1.00;;;;;;5071770;28;19924;-52
2022/02/24 05:24:31;;;;;;;;;;;7.30;1.00;;;;;;5071653;28;19924;-55
2022/02/24 05:26:58;;;;;;;;;;;7.30;1.00;;;;;;5075296;28;19974;-53
2022/02/24 05:29:26;;;;;;;;;;;7.30;1.00;;;;;;5075595;28;19974;-52
2022/02/24 05:31:52;;;;;;;;;;;7.30;1.00;;;;;;5076259;28;19985;-57
2022/02/24 05:34:19;;;;;;;;;;;7.40;1.00;;;;;;5075273;28;20382;-52
2022/02/24 05:36:45;;;;;;;;;;;7.40;1.00;;;;;;5075427;28;19931;-54
2022/02/24 05:39:12;;;;;;;;;;;7.40;1.00;;;;;;5075789;28;19974;-57
2022/02/24 05:41:38;;;;;;;;;;;7.40;1.00;;;;;;5075451;28;20063;-52
2022/02/24 05:44:05;;;;;;;;;;;7.40;1.00;;;;;;5075001;28;20009;-53
2022/02/24 05:46:33;;;;;;;;;;;7.40;1.00;;;;;;5075164;28;19974;-54
2022/02/24 05:49:00;;;;;;;;;;;7.40;1.00;;;;;;5075245;28;20543;-54
2022/02/24 05:51:26;;;;;;;;;;;7.40;1.00;;;;;;5074981;28;19920;-54
2022/02/24 05:53:53;;;;;;;;;;;7.50;1.00;;;;;;5075019;28;19974;-57
2022/02/24 05:56:19;;;;;;;;;;;7.50;1.00;;;;;;5074681;28;19925;-54
2022/02/24 05:58:46;;;;;;;;;;;7.50;1.00;;;;;;5074831;28;19982;-54
2022/02/24 06:01:12;;;;;;;;;;;7.50;1.00;;;;;;5075099;28;19924;-57
2022/02/24 06:03:40;;;;;;;;;;;7.50;1.00;;;;;;5074660;28;19974;-53
2022/02/24 06:06:06;;;;;;;;;;;7.50;1.00;;;;;;5074697;28;19924;-57
2022/02/24 06:08:33;;;;;;;;;;;7.50;1.00;;;;;;5074522;28;20277;-55
2022/02/24 06:11:00;;;;;;;;;;;7.50;1.00;;;;;;5075103;28;19920;-56
2022/02/24 06:13:27;;;;;;;;;;;7.50;1.00;;;;;;5074807;28;19928;-56
2022/02/24 06:15:54;;;;;;;;;;;7.50;1.00;;;;;;5074897;28;19921;-54
2022/02/24 06:18:20;;;;;;;;;;;7.50;1.00;;;;;;5067212;28;19921;-63
2022/02/24 06:20:48;;;;;;;;;;;7.50;1.00;;;;;;5068671;28;19920;-60
2022/02/24 06:23:15;;;;;;;;;;;7.50;1.00;;;;;;5074841;28;20430;-60
2022/02/24 06:25:41;;;;;;;;;;;7.60;1.00;;;;;;5073868;28;19920;-61
2022/02/24 06:28:08;;;;;;;;;;;7.60;1.00;;;;;;5075142;28;19974;-59
2022/02/24 06:30:34;;;;;;;;;;;7.60;1.00;;;;;;5073922;28;19974;-59
2022/02/24 06:33:01;;;;;;;;;;;7.60;1.00;;;;;;5073954;28;19928;-60
2022/02/24 06:35:28;;;;;;;;;;;7.60;1.00;;;;;;5073557;28;20279;-58
2022/02/24 06:37:55;;;;;;;;;;;7.60;1.00;;;;;;5072381;28;19928;-57
2022/02/24 06:40:22;;;;;;;;;;;7.70;1.00;;;;;;5073265;28;19924;-58
2022/02/24 06:42:49;;;;;;;;;;;7.70;1.00;;;;;;5073878;28;19920;-60
2022/02/24 06:45:15;;;;;;;;;;;7.70;1.00;;;;;;5073354;28;19929;-60
2022/02/24 06:47:42;;;;;;;;;;;7.70;1.00;;;;;;5073567;28;19966;-61
2022/02/24 06:50:10;;;;;;;;;;;7.70;1.00;;;;;;5073296;28;19921;-62
2022/02/24 06:52:36;;;;;;;;;;;7.70;1.00;;;;;;5070881;28;19920;-60
2022/02/24 06:55:05;;;;;;;;;;;7.70;1.00;;;;;;5072340;28;20302;-61
2022/02/24 06:57:31;;;;;;;;;;;7.70;1.00;;;;;;5073745;28;19928;-60
2022/02/24 06:59:58;;;;;;;;;;;7.70;1.00;;;;;;5073254;28;19924;-61
2022/02/24 07:02:24;;;;;;;;;;;7.70;1.00;;;;;;5073647;28;19920;-62
2022/02/24 07:04:51;;;;;;;;;;;7.80;1.00;;;;;;5073600;28;20367;-61
2022/02/24 07:07:17;;;;;;;;;;;7.80;1.00;;;;;;5073212;28;19974;-58
2022/02/24 07:09:44;;;;;;;;;;;7.80;1.00;;;;;;5072991;28;19943;-62
2022/02/24 07:12:12;;;;;;;;;;;7.80;1.00;;;;;;5073388;28;19927;-63
2022/02/24 07:14:38;;;;;;;;;;;7.80;1.00;;;;;;5073336;28;20383;-63
2022/02/24 07:17:05;;;;;;;;;;;7.90;1.00;;;;;;5073225;28;19963;-61
2022/02/24 07:19:32;;;;;;;;;;;7.90;1.00;;;;;;5073347;28;19971;-62
2022/02/24 07:21:58;;;;;;;;;;;7.90;1.00;;;;;;5074567;28;20279;-63
2022/02/24 07:24:25;;;;;;;;;;;7.90;1.00;;;;;;5073429;28;19974;-61
2022/02/24 07:26:52;;;;;;;;;;;8.00;1.00;;;;;;5073837;28;20026;-61
2022/02/24 07:29:19;;;;;;;;;;;8.00;1.00;;;;;;5073160;28;20440;-62
2022/02/24 07:31:46;;;;;;;;;;;8.00;1.00;;;;;;5073039;28;19924;-60
2022/02/24 07:34:13;;;;;;;;;;;8.10;1.00;;;;;;5072831;28;20039;-60
2022/02/24 07:36:40;;;;;;;;;;;8.00;1.00;;;;;;5053708;28;20015;-58
2022/02/24 07:39:10;;;;;;;;;;;8.00;1.00;;;;;;5052413;28;19975;-59
2022/02/24 07:41:37;;;;;;;;;;;8.00;1.00;;;;;;5052671;28;20019;-62
2022/02/24 07:44:04;;;;;;;;;;;8.00;1.00;;;;;;5053209;28;20062;-61
2022/02/24 07:46:32;;;;;;;;;;;8.00;1.00;;;;;;5052732;28;19920;-56
2022/02/24 07:48:58;;;;;;;;;;;8.00;1.00;;;;;;5052098;28;19931;-61
2022/02/24 07:51:25;;;;;;;;;;;8.10;1.00;;;;;;5052597;28;19924;-62
2022/02/24 07:53:51;;;;;;;;;;;8.10;1.00;;;;;;5052622;28;19920;-59
2022/02/24 07:56:18;;;;;;;;;;;8.10;1.00;;;;;;5052250;28;19921;-62
2022/02/24 07:58:44;;;;;;;;;;;8.10;1.00;;;;;;5052230;28;19970;-60
2022/02/24 08:01:11;;;;;;;;;;;8.20;1.00;;;;;;5051850;28;19924;-58
2022/02/24 08:03:39;;;;;;;;;;;8.20;1.00;;;;;;5052234;28;19921;-59
2022/02/24 08:06:05;;;;;;;;;;;8.20;99.90;;;;;;5051830;28;19920;-56
2022/02/24 08:08:32;;;;;;;;;;;8.20;99.90;;;;;;5051833;28;20445;-57
2022/02/24 08:10:58;;;;;;;;;;;8.20;99.90;;;;;;5051692;28;19924;-61
2022/02/24 08:13:25;;;;;;;;;;;8.10;99.90;;;;;;5052306;28;19951;-57
2022/02/24 08:15:51;;;;;;;;;;;8.10;99.90;;;;;;5051943;28;20019;-59
2022/02/24 08:18:18;;;;;;;;;;;8.20;99.90;;;;;;5051458;28;19974;-57
2022/02/24 08:20:46;;;;;;;;;;;8.20;99.90;;;;;;5052614;28;19921;-57
2022/02/24 08:23:15;;;;;;;;;;;8.20;99.90;;;;;;5052227;28;19975;-54
2022/02/24 08:25:41;;;;;;;;;;;8.20;99.90;;;;;;5053539;28;19921;-60
2022/02/24 08:28:08;;;;;;;;;;;8.30;99.90;;;;;;5053182;28;19975;-60
2022/02/24 08:30:34;;;;;;;;;;;8.30;99.90;;;;;;5052328;28;19921;-59
2022/02/24 08:33:02;;;;;;;;;;;8.40;99.90;;;;;;5051763;28;19921;-59
2022/02/24 08:35:29;;;;;;;;;;;8.40;99.90;;;;;;5051347;28;19921;-59
2022/02/24 08:37:57;;;;;;;;;;;8.40;99.90;;;;;;5051764;28;19974;-59
2022/02/24 08:40:23;;;;;;;;;;;8.40;99.90;;;;;;5051191;28;20375;-57
2022/02/24 08:42:50;;;;;;;;;;;8.50;99.90;;;;;;5051847;28;20307;-57
2022/02/24 08:45:17;;;;;;;;;;;8.60;1.00;;;;;;5051493;28;19925;-58
2022/02/24 08:47:44;;;;;;;;;;;8.60;99.90;;;;;;5051090;28;20275;-57
2022/02/24 08:50:11;;;;;;;;;;;8.70;99.90;;;;;;5051384;28;20402;-56
2022/02/24 08:52:38;;;;;;;;;;;8.70;99.90;;;;;;5051582;28;19921;-55
2022/02/24 08:55:06;;;;;;;;;;;8.80;99.90;;;;;;5051680;28;19966;-60
2022/02/24 08:57:32;;;;;;;;;;;8.90;99.90;;;;;;5051732;28;20003;-59
2022/02/24 08:59:59;;;;;;;;;;;8.80;99.90;;;;;;5050361;28;19921;-60
2022/02/24 09:02:25;;;;;;;;;;;8.90;99.90;;;;;;5051387;28;19989;-59
2022/02/24 09:04:52;;;;;;;;;;;8.70;99.90;;;;;;5050755;28;19975;-59
2022/02/24 09:07:18;;;;;;;;;;;8.60;99.90;;;;;;5050996;28;19986;-59
2022/02/24 09:09:45;;;;;;;;;;;8.60;99.90;;;;;;5057973;28;20337;-58
2022/02/24 09:12:13;;;;;;;;;;;8.60;99.90;;;;;;5070799;28;19921;-58
2022/02/24 09:14:39;;;;;;;;;;;8.60;99.90;;;;;;5071207;28;20333;-59
2022/02/24 09:17:06;;;;;;;;;;;8.60;99.90;;;;;;5071124;28;19920;-59
2022/02/24 09:19:33;;;;;;;;;;;8.60;99.90;;;;;;5071060;28;19920;-60
2022/02/24 09:21:59;;;;;;;;;;;8.60;99.90;;;;;;5070486;28;19921;-60
2022/02/24 09:24:26;;;;;;;;;;;8.60;99.90;;;;;;5071095;28;19973;-59
2022/02/24 09:26:52;;;;;;;;;;;8.70;99.90;;;;;;5070910;28;19921;-58
2022/02/24 09:29:20;;;;;;;;;;;8.80;99.90;;;;;;5070416;28;20383;-60
2022/02/24 09:31:47;;;;;;;;;;;8.70;99.90;;;;;;5070669;28;20051;-59
2022/02/24 09:34:15;;;;;;;;;;;8.70;99.90;;;;;;5070659;28;19920;-59
2022/02/24 09:36:42;;;;;;;;;;;8.60;99.90;;;;;;5071054;28;19920;-61
2022/02/24 09:39:08;;;;;;;;;;;8.60;99.90;;;;;;5070974;28;19924;-62
2022/02/24 09:41:35;;;;;;;;;;;8.60;99.90;;;;;;5070429;28;19920;-61
2022/02/24 09:44:01;;;;;;;;;;;8.60;99.90;;;;;;5071004;28;19920;-59
2022/02/24 09:46:30;;;;;;;;;;;8.50;99.90;;;;;;5070786;28;19977;-59
2022/02/24 09:48:57;;;;;;;;;;;8.50;99.90;;;;;;5070675;28;20437;-61
2022/02/24 09:51:24;;;;;;;;;;;8.70;1.00;;;;;;5070279;28;19920;-61
2022/02/24 09:53:51;;;;;;;;;;;8.70;1.00;;;;;;5070777;28;20006;-62
2022/02/24 09:56:19;;;;;;;;;;;8.60;1.00;;;;;;5070325;28;19970;-61
2022/02/24 09:58:46;;;;;;;;;;;8.60;1.00;;;;;;5070301;28;19921;-60
2022/02/24 10:01:14;;;;;;;;;;;8.60;1.00;;;;;;5070268;28;20337;-61
2022/02/24 10:03:44;;;;;;;;;;;8.60;1.00;;;;;;5070667;28;20484;-58
2022/02/24 10:06:11;;;;;;;;;;;8.60;1.00;;;;;;5071449;28;19927;-61
2022/02/24 10:08:40;;;;;;;;;;;8.70;1.00;;;;;;5070727;28;20328;-63
2022/02/24 10:11:16;;;;;;;;;;;8.80;1.00;;;;;;5070475;28;19973;-63
2022/02/24 10:13:55;;;;;;;;;;;8.90;1.00;;;;;;5075109;28;19920;-64
2022/02/24 10:16:21;;;;;;;;;;;8.80;1.00;;;;;;5075029;28;19924;-57
2022/02/24 10:18:49;;;;;;;;;;;8.80;1.00;;;;;;5074400;28;19985;-58
2022/02/24 10:21:18;;;;;;;;;;;8.90;1.00;;;;;;5073268;28;19920;-63
2022/02/24 10:23:45;;;;;;;;;;;8.90;1.00;;;;;;5074320;28;20410;-63
2022/02/24 10:26:12;;;;;;;;;;;8.90;1.00;;;;;;5074493;28;19920;-61
2022/02/24 10:28:40;;;;;;;;;;;8.90;1.00;;;;;;5073953;28;19928;-59
2022/02/24 10:31:11;;;;;;;;;;;8.90;1.00;;;;;;5073752;28;19920;-60
2022/02/24 10:33:38;;;;;;;;;;;9.00;1.00;;;;;;5073682;28;19927;-60
2022/02/24 10:36:25;;;;;;;;;;;9.00;1.00;;;;;;5074241;28;19927;-61
2022/02/24 10:39:01;;;;;;;;;;;9.00;1.00;;;;;;5068222;28;20398;-59
2022/02/24 10:41:28;;;;;;;;;;;8.90;1.00;;;;;;5073569;28;19921;-58
2022/02/24 10:44:10;;;;;;;;;;;8.70;1.00;;;;;;5073688;28;19974;-59
2022/02/24 10:46:36;;;;;;;;;;;8.70;1.00;;;;;;5073759;28;19928;-61
2022/02/24 10:49:03;;;;;;;;;;;8.60;1.00;;;;;;5074064;28;19920;-61
2022/02/24 10:51:31;;;;;;;;;;;8.60;1.00;;;;;;5073196;28;20378;-54
2022/02/24 10:54:03;;;;;;;;;;;8.60;1.00;;;;;;5074050;28;19924;-56
2022/02/24 10:56:30;;;;;;;;;;;8.70;1.00;;;;;;5074605;28;19965;-59
2022/02/24 10:58:57;;;;;;;;;;;8.60;1.00;;;;;;5075969;28;20252;-57
2022/02/24 11:01:24;;;;;;;;;;;8.50;1.00;;;;;;5073644;28;20354;-61
2022/02/24 11:03:51;;;;;;;;;;;8.50;1.00;;;;;;5073130;28;20385;-60
2022/02/24 11:06:20;;;;;;;;;;;8.70;1.00;;;;;;5073161;28;19924;-58
2022/02/24 11:08:47;;;;;;;;;;;8.80;1.00;;;;;;5072776;28;19920;-58
2022/02/24 11:11:19;;;;;;;;;;;8.90;1.00;;;;;;5072417;28;19921;-60
2022/02/24 11:13:46;;;;;;;;;;;8.90;1.00;;;;;;5073015;28;20445;-58
2022/02/24 11:16:13;;;;;;;;;;;8.90;1.00;;;;;;5073129;28;19920;-59
2022/02/24 11:18:40;;;;;;;;;;;8.90;1.00;;;;;;5072963;28;19920;-58
2022/02/24 11:21:10;;;;;;;;;;;8.90;1.00;;;;;;5072311;28;19938;-55
2022/02/24 11:23:38;;;;;;;;;;;8.90;1.00;;;;;;5072548;28;19926;-59
2022/02/24 11:26:09;;;;;;;;;;;8.90;1.00;;;;;;5072669;28;19931;-56
2022/02/24 11:28:41;;;;;;;;;;;8.90;1.00;;;;;;5072917;28;19936;-58
2022/02/24 11:31:15;;;;;;;;;;;9.00;1.00;;;;;;5072360;28;19920;-57
2022/02/24 11:33:42;;;;;;;;;;;9.00;1.00;;;;;;5072634;28;20363;-58
2022/02/24 11:36:09;;;;;;;;;;;9.20;1.00;;;;;;5072347;28;19925;-54
2022/02/24 11:38:36;;;;;;;;;;;9.30;99.90;;;;;;5072388;28;20045;-54
2022/02/24 11:41:06;;;;;;;;;;;9.40;1.00;;;;;;5052568;28;20272;-56
2022/02/24 11:43:33;;;;;;;;;;;9.60;1.00;;;;;;5052335;28;20379;-56
2022/02/24 11:46:04;;;;;;;;;;;9.50;1.00;;;;;;5052656;28;19925;-59
2022/02/24 11:48:34;;;;;;;;;;;9.40;1.00;;;;;;5052416;28;19929;-60
2022/02/24 11:51:01;;;;;;;;;;;9.40;1.00;;;;;;5051946;28;20224;-60
2022/02/24 11:53:31;;;;;;;;;;;9.50;1.00;;;;;;5052622;28;19951;-59
2022/02/24 11:55:59;;;;;;;;;;;9.50;1.00;;;;;;5052202;28;19929;-61
2022/02/24 11:58:41;;;;;;;;;;;9.40;1.00;;;;;;5052545;28;20014;-60
2022/02/24 12:01:19;;;;;;;;;;;9.40;1.00;;;;;;5051564;28;19925;-61
2022/02/24 12:03:53;;;;;;;;;;;9.40;1.00;;;;;;5052566;28;19924;-60
2022/02/24 12:06:20;;;;;;;;;;;9.40;1.00;;;;;;5053921;28;19921;-60
2022/02/24 12:09:03;;;;;;;;;;;9.30;1.00;;;;;;5053508;28;19974;-62
2022/02/24 12:11:30;;;;;;;;;;;9.40;1.00;;;;;;5053273;28;19920;-61
2022/02/24 12:13:56;;;;;;;;;;;9.40;1.00;;;;;;5051704;28;19947;-52
2022/02/24 12:16:25;;;;;;;;;;;9.20;1.00;;;;;;5052391;28;19967;-65
2022/02/24 12:18:53;;;;;;;;;;;9.40;1.00;;;;;;5053945;28;20444;-65
2022/02/24 12:21:29;;;;;;;;;;;9.60;1.00;;;;;;5053626;28;19921;-67
2022/02/24 12:23:56;;;;;;;;;;;9.70;1.00;;;;;;5051391;28;20441;-67
2022/02/24 12:26:36;;;;;;;;;;;10.00;1.00;;;;;;5051752;28;19920;-66
2022/02/24 12:29:17;;;;;;;;;;;10.20;99.90;;;;;;5052004;28;20023;-68
2022/02/24 12:31:46;;;;;;;;;;;10.40;99.90;;;;;;5052599;28;19920;-68
2022/02/24 12:34:12;;;;;;;;;;;10.30;99.90;;;;;;5071245;28;20002;-65
2022/02/24 12:36:39;;;;;;;;;;;10.40;99.90;;;;;;5070787;28;19939;-66
2022/02/24 12:39:05;;;;;;;;;;;10.30;99.90;;;;;;5071701;28;19920;-66
2022/02/24 12:41:32;;;;;;;;;;;10.40;99.90;;;;;;5071693;28;20333;-64
2022/02/24 12:43:59;;;;;;;;;;;10.50;99.90;;;;;;5071382;28;20479;-65
2022/02/24 12:46:25;;;;;;;;;;;10.50;99.90;;;;;;5071497;28;19927;-65
2022/02/24 12:48:53;;;;;;;;;;;10.40;99.90;;;;;;5071087;28;19982;-65
2022/02/24 12:51:23;;;;;;;;;;;10.40;99.90;;;;;;5071117;28;20375;-63
2022/02/24 12:53:49;;;;;;;;;;;10.50;99.90;;;;;;5071545;28;20011;-62
2022/02/24 12:56:16;;;;;;;;;;;10.50;99.90;;;;;;5071318;28;20327;-64
2022/02/24 12:58:44;;;;;;;;;;;10.50;99.90;;;;;;5071759;28;19969;-65
2022/02/24 13:01:12;;;;;;;;;;;10.60;99.90;;;;;;5070771;28;19924;-64
2022/02/24 13:03:39;;;;;;;;;;;10.50;99.90;;;;;;5071360;28;19924;-64
2022/02/24 13:06:07;;;;;;;;;;;10.10;99.90;;;;;;5071048;28;19920;-63
2022/02/24 13:11:18;;;;;;;;;;;10.00;99.90;;;;;;5071020;28;19922;-64
2022/02/24 13:13:45;;;;;;;;;;;10.00;99.90;;;;;;5071455;28;19966;-63
2022/02/24 13:16:16;;;;;;;;;;;9.90;99.90;;;;;;5070758;28;20440;-64
2022/02/24 13:18:43;;;;;;;;;;;9.90;99.90;;;;;;5071000;28;19920;-65
2022/02/24 13:21:12;;;;;;;;;;;10.00;99.90;;;;;;5071248;28;19920;-64
2022/02/24 13:23:39;;;;;;;;;;;10.10;99.90;;;;;;5071137;28;19925;-60
2022/02/24 13:26:06;;;;;;;;;;;10.20;99.90;;;;;;5071486;28;20417;-66
2022/02/24 13:28:33;;;;;;;;;;;10.30;99.90;;;;;;5071440;28;19927;-61
2022/02/24 13:31:01;;;;;;;;;;;10.30;99.90;;;;;;5071074;28;19939;-61
2022/02/24 13:33:29;;;;;;;;;;;10.10;99.90;;;;;;5071635;28;19965;-58
2022/02/24 13:35:56;;;;;;;;;;;10.30;99.90;;;;;;5070958;28;20015;-61
2022/02/24 13:38:31;;;;;;;;;;;10.40;99.90;;;;;;5059820;28;19947;-56
2022/02/24 13:40:59;;;;;;;;;;;10.50;99.90;;;;;;5050488;28;19972;-60
2022/02/24 13:43:26;;;;;;;;;;;10.60;99.90;;;;;;5050418;28;19928;-60
2022/02/24 13:45:53;;;;;;;;;;;10.60;99.90;;;;;;5051212;28;19921;-61
2022/02/24 13:48:24;;;;;;;;;;;10.30;99.90;;;;;;5054048;28;19927;-62
2022/02/24 13:50:51;;;;;;;;;;;10.50;99.90;;;;;;5054585;28;19999;-61
2022/02/24 13:53:21;;;;;;;;;;;10.50;99.90;;;;;;5054283;28;19920;-56
2022/02/24 13:55:56;;;;;;;;;;;10.50;99.90;;;;;;5055472;28;19925;-60
2022/02/24 13:58:24;;;;;;;;;;;10.50;99.90;;;;;;5055569;28;19974;-59
2022/02/24 14:00:53;;;;;;;;;;;10.40;99.90;;;;;;5054774;28;19920;-61
2022/02/24 14:03:28;;;;;;;;;;;10.50;99.90;;;;;;5055169;28;20451;-60
2022/02/24 14:06:00;;;;;;;;;;;10.60;99.90;;;;;;5065867;28;19928;-59
2022/02/24 14:08:27;;;;;;;;;;;10.70;99.90;;;;;;5075252;28;20366;-58
2022/02/24 14:11:03;;;;;;;;;;;10.90;99.90;;;;;;5073685;28;20333;-59
2022/02/24 14:13:30;;;;;;;;;;;10.90;99.90;;;;;;5074225;28;19920;-60
2022/02/24 14:15:56;;;;;;;;;;;10.60;99.90;;;;;;5074004;28;19924;-59
2022/02/24 14:18:23;;;;;;;;;;;10.60;99.90;;;;;;5073642;28;20345;-64
2022/02/24 14:20:50;;;;;;;;;;;10.70;99.90;;;;;;5073666;28;19970;-64
2022/02/24 14:23:17;;;;;;;;;;;10.60;99.90;;;;;;5073767;28;20013;-64
2022/02/24 14:25:43;;;;;;;;;;;10.50;99.90;;;;;;5074042;28;19924;-64
2022/02/24 14:28:11;;;;;;;;;;;10.50;99.90;;;;;;5074070;28;19928;-64
2022/02/24 14:30:38;;;;;;;;;;;10.40;99.90;;;;;;5073777;28;20298;-64
2022/02/24 14:33:04;;;;;;;;;;;10.40;99.90;;;;;;5073771;28;19924;-59
2022/02/24 14:35:31;;;;;;;;;;;10.50;99.90;;;;;;5073286;28;19925;-58
2022/02/24 14:37:57;;;;;;;;;;;10.40;99.90;;;;;;5073921;28;19924;-57
2022/02/24 14:40:24;;;;;;;;;;;10.30;99.90;;;;;;5073634;28;19954;-58